createdAt,value
2022-10-23T00:01:26.491Z,98896.00
2022-10-23T00:04:01.376Z,98898.75
2022-10-23T00:06:31.708Z,98892.47
2022-10-23T00:09:00.249Z,98900.34
2022-10-23T00:11:29.017Z,98896.78
2022-10-23T00:13:58.695Z,98901.16
2022-10-23T00:16:28.837Z,98916.22
2022-10-23T00:18:55.712Z,98914.44
2022-10-23T00:21:22.650Z,98915.31
2022-10-23T00:23:49.433Z,98911.81
2022-10-23T00:26:16.293Z,98915.38
2022-10-23T00:28:50.970Z,98914.47
2022-10-23T00:31:18.388Z,98902.00
2022-10-23T00:33:49.431Z,98905.56
2022-10-23T00:36:18.465Z,98909.09
2022-10-23T00:38:45.324Z,98897.63
2022-10-23T00:41:28.452Z,98891.41
2022-10-23T00:44:04.064Z,98899.38
2022-10-23T00:46:31.122Z,98891.59
2022-10-23T00:48:58.224Z,98898.84
2022-10-23T00:51:27.645Z,98902.31
2022-10-23T00:54:12.709Z,98900.53
2022-10-23T00:56:47.111Z,98896.91
2022-10-23T00:59:14.026Z,98900.50
2022-10-23T01:01:41.319Z,98904.03
2022-10-23T01:04:09.043Z,98900.50
2022-10-23T01:06:51.074Z,98897.84
2022-10-23T01:09:20.539Z,98893.38
2022-10-23T01:11:56.326Z,98894.25
2022-10-23T01:14:42.939Z,98889.88
2022-10-23T01:17:12.123Z,98880.19
2022-10-23T01:19:51.100Z,98878.38
2022-10-23T01:22:35.817Z,98884.56
2022-10-23T01:25:10.366Z,98880.16
2022-10-23T01:27:42.232Z,98882.75
2022-10-23T01:30:10.355Z,98886.25
2022-10-23T01:32:48.328Z,98880.06
2022-10-23T01:35:24.827Z,98881.06
2022-10-23T01:38:01.338Z,98876.78
2022-10-23T01:40:37.457Z,98864.28
2022-10-23T01:43:16.499Z,98871.53
2022-10-23T01:45:51.230Z,98873.28
2022-10-23T01:48:25.064Z,98867.94
2022-10-23T01:50:55.475Z,98876.75
2022-10-23T01:53:23.382Z,98865.25
2022-10-23T01:55:51.157Z,98867.91
2022-10-23T01:58:21.053Z,98864.41
2022-10-23T02:00:52.166Z,98863.53
2022-10-23T02:03:19.028Z,98855.63
2022-10-23T02:05:45.842Z,98853.00
2022-10-23T02:08:12.734Z,98849.63
2022-10-23T02:10:42.175Z,98852.38
2022-10-23T02:13:19.131Z,98850.53
2022-10-23T02:15:59.751Z,98848.72
2022-10-23T02:18:31.897Z,98851.34
2022-10-23T02:21:09.466Z,98843.44
2022-10-23T02:23:47.054Z,98843.41
2022-10-23T02:26:21.167Z,98836.34
2022-10-23T02:28:57.166Z,98838.31
2022-10-23T02:31:24.435Z,98833.94
2022-10-23T02:33:51.062Z,98828.56
2022-10-23T02:36:19.193Z,98838.28
2022-10-23T02:38:45.968Z,98828.47
2022-10-23T02:41:32.656Z,98832.06
2022-10-23T02:44:10.714Z,98835.56
2022-10-23T02:46:43.045Z,98827.53
2022-10-23T02:49:20.079Z,98832.00
2022-10-23T02:51:57.306Z,98832.00
2022-10-23T02:54:50.907Z,98840.91
2022-10-23T02:57:36.806Z,98825.88
2022-10-23T03:00:11.565Z,98827.63
2022-10-23T03:02:46.181Z,98826.72
2022-10-23T03:05:18.543Z,98825.84
2022-10-23T03:07:46.823Z,98824.91
2022-10-23T03:10:13.861Z,98824.94
2022-10-23T03:12:40.999Z,98809.91
2022-10-23T03:15:08.674Z,98806.38
2022-10-23T03:17:35.154Z,98809.00
2022-10-23T03:20:01.715Z,98812.50
2022-10-23T03:22:28.214Z,98806.38
2022-10-23T03:24:54.752Z,98815.28
2022-10-23T03:27:24.531Z,98814.44
2022-10-23T03:29:51.123Z,98818.03
2022-10-23T03:32:20.431Z,98816.22
2022-10-23T03:34:46.900Z,98810.97
2022-10-23T03:37:13.392Z,98810.09
2022-10-23T03:39:40.055Z,98793.41
2022-10-23T03:42:06.522Z,98798.75
2022-10-23T03:44:34.169Z,98804.09
2022-10-23T03:47:01.218Z,98804.06
2022-10-23T03:49:27.664Z,98784.59
2022-10-23T03:51:54.218Z,98785.50
2022-10-23T03:54:23.399Z,98795.22
2022-10-23T03:56:53.622Z,98784.63
2022-10-23T03:59:23.309Z,98789.06
2022-10-23T04:01:49.893Z,98786.38
2022-10-23T04:04:17.273Z,98785.53
2022-10-23T04:06:44.219Z,98790.03
2022-10-23T04:11:42.766Z,98784.72
2022-10-23T04:14:12.571Z,98782.91
2022-10-23T04:16:39.365Z,98780.19
2022-10-23T04:19:09.091Z,98783.72
2022-10-23T04:21:35.648Z,98781.19
2022-10-23T04:24:02.159Z,98798.84
2022-10-23T04:26:28.623Z,98790.00
2022-10-23T04:28:55.305Z,98793.50
2022-10-23T04:31:21.820Z,98794.38
2022-10-23T04:33:48.360Z,98792.59
2022-10-23T04:36:14.835Z,98792.66
2022-10-23T04:38:41.338Z,98787.34
2022-10-23T04:41:07.927Z,98787.31
2022-10-23T04:43:34.529Z,98797.09
2022-10-23T04:46:00.997Z,98790.03
2022-10-23T04:48:29.173Z,98790.84
2022-10-23T04:51:01.510Z,98780.28
2022-10-23T04:53:29.278Z,98782.94
2022-10-23T04:55:57.971Z,98784.66
2022-10-23T04:58:25.672Z,98779.34
2022-10-23T05:00:52.893Z,98781.16
2022-10-23T05:03:19.805Z,98778.47
2022-10-23T05:05:46.583Z,98775.81
2022-10-23T05:08:17.082Z,98788.19
2022-10-23T05:10:44.791Z,98782.00
2022-10-23T05:13:11.278Z,98783.75
2022-10-23T05:15:37.852Z,98782.94
2022-10-23T05:18:30.260Z,98774.06
2022-10-23T05:20:59.403Z,98766.97
2022-10-23T05:23:27.004Z,98763.44
2022-10-23T05:25:53.612Z,98752.84
2022-10-23T05:28:20.174Z,98754.66
2022-10-23T05:30:47.118Z,98753.81
2022-10-23T05:33:13.987Z,98763.50
2022-10-23T05:35:44.219Z,98763.50
2022-10-23T05:38:11.674Z,98769.72
2022-10-23T05:43:05.618Z,98772.34
2022-10-23T05:45:32.088Z,98767.94
2022-10-23T05:48:10.619Z,98771.47
2022-10-23T05:50:46.175Z,98768.78
2022-10-23T05:53:12.824Z,98770.56
2022-10-23T05:55:39.314Z,98770.56
2022-10-23T05:58:05.819Z,98767.94
2022-10-23T06:00:32.894Z,98767.94
2022-10-23T06:03:00.998Z,98760.13
2022-10-23T06:05:27.547Z,98762.84
2022-10-23T06:08:00.183Z,98752.25
2022-10-23T06:10:27.365Z,98754.84
2022-10-23T06:12:53.851Z,98750.41
2022-10-23T06:15:20.352Z,98746.88
2022-10-23T06:17:46.895Z,98744.19
2022-10-23T06:20:13.441Z,98756.56
2022-10-23T06:22:40.257Z,98747.81
2022-10-23T06:25:07.759Z,98759.25
2022-10-23T06:27:34.234Z,98750.34
2022-10-23T06:30:00.777Z,98751.22
2022-10-23T06:32:27.256Z,98751.22
2022-10-23T06:34:53.672Z,98752.03
2022-10-23T06:37:20.173Z,98745.88
2022-10-23T06:39:46.643Z,98750.22
2022-10-23T06:42:13.201Z,98746.63
2022-10-23T06:44:39.676Z,98753.66
2022-10-23T06:47:06.785Z,98757.19
2022-10-23T06:49:33.291Z,98763.38
2022-10-23T06:51:59.731Z,98758.03
2022-10-23T06:54:26.365Z,98759.81
2022-10-23T06:56:53.336Z,98747.38
2022-10-23T06:59:19.893Z,98747.28
2022-10-23T07:01:46.974Z,98739.34
2022-10-23T07:04:16.414Z,98739.22
2022-10-23T07:06:43.585Z,98741.72
2022-10-23T07:09:10.099Z,98742.53
2022-10-23T07:11:37.393Z,98740.72
2022-10-23T07:14:04.045Z,98746.88
2022-10-23T07:16:31.918Z,98747.69
2022-10-23T07:19:01.059Z,98748.53
2022-10-23T07:21:29.766Z,98741.41
2022-10-23T07:23:57.610Z,98737.88
2022-10-23T07:26:24.883Z,98741.28
2022-10-23T07:28:55.004Z,98732.25
2022-10-23T07:31:28.061Z,98734.63
2022-10-23T07:33:54.975Z,98731.72
2022-10-23T07:36:21.803Z,98722.63
2022-10-23T07:38:48.353Z,98722.47
2022-10-23T07:41:15.472Z,98726.72
2022-10-23T07:43:41.981Z,98721.28
2022-10-23T07:46:09.917Z,98725.53
2022-10-23T07:48:37.821Z,98722.75
2022-10-23T07:51:11.770Z,98726.19
2022-10-23T07:53:38.847Z,98727.09
2022-10-23T07:56:16.554Z,98726.00
2022-10-23T07:58:43.842Z,98724.94
2022-10-23T08:01:18.658Z,98723.81
2022-10-23T08:03:45.583Z,98714.84
2022-10-23T08:06:12.503Z,98718.19
2022-10-23T08:08:39.029Z,98717.09
2022-10-23T08:11:05.936Z,98718.75
2022-10-23T08:13:32.427Z,98718.69
2022-10-23T08:15:59.455Z,98716.91
2022-10-23T08:18:25.891Z,98716.00
2022-10-23T08:20:52.938Z,98705.31
2022-10-23T08:23:20.226Z,98702.53
2022-10-23T08:25:47.395Z,98696.25
2022-10-23T08:28:14.970Z,98695.25
2022-10-23T08:30:41.473Z,98691.63
2022-10-23T08:33:08.056Z,98687.13
2022-10-23T08:35:38.350Z,98683.38
2022-10-23T08:38:06.319Z,98687.66
2022-10-23T08:40:33.048Z,98684.81
2022-10-23T08:43:05.323Z,98685.50
2022-10-23T08:45:58.466Z,98690.59
2022-10-23T08:48:38.384Z,98687.66
2022-10-23T08:51:16.162Z,98679.59
2022-10-23T08:54:02.757Z,98687.41
2022-10-23T08:56:39.384Z,98689.16
2022-10-23T08:59:24.983Z,98686.41
2022-10-23T09:02:11.620Z,98681.81
2022-10-23T09:04:38.262Z,98670.00
2022-10-23T09:07:35.276Z,98674.22
2022-10-23T09:10:10.486Z,98673.88
2022-10-23T09:12:37.373Z,98674.53
2022-10-23T09:15:28.377Z,98670.41
2022-10-23T09:18:00.910Z,98664.34
2022-10-23T09:20:31.975Z,98672.72
2022-10-23T09:23:02.716Z,98677.50
2022-10-23T09:25:41.212Z,98677.44
2022-10-23T09:28:18.871Z,98670.28
2022-10-23T09:30:45.378Z,98670.34
2022-10-23T09:33:16.352Z,98679.03
2022-10-23T09:36:02.304Z,98678.91
2022-10-23T09:38:39.229Z,98668.88
2022-10-23T09:41:24.586Z,98666.88
2022-10-23T09:44:15.666Z,98664.84
2022-10-23T09:46:44.847Z,98663.97
2022-10-23T09:49:20.742Z,98662.34
2022-10-23T09:52:10.425Z,98656.41
2022-10-23T09:54:39.975Z,98663.66
2022-10-23T09:57:23.554Z,98660.97
2022-10-23T09:59:55.268Z,98662.91
2022-10-23T10:02:27.448Z,98659.50
2022-10-23T10:04:54.580Z,98669.31
2022-10-23T10:07:31.147Z,98663.88
2022-10-23T10:10:00.145Z,98662.13
2022-10-23T10:12:37.493Z,98668.44
2022-10-23T10:15:14.919Z,98666.69
2022-10-23T10:17:47.188Z,98665.72
2022-10-23T10:20:38.556Z,98660.31
2022-10-23T10:23:28.575Z,98648.63
2022-10-23T10:26:17.163Z,98647.75
2022-10-23T10:29:02.238Z,98644.22
2022-10-23T10:31:53.313Z,98636.91
2022-10-23T10:34:35.006Z,98640.94
2022-10-23T10:37:13.906Z,98634.50
2022-10-23T10:39:55.639Z,98627.00
2022-10-23T10:43:04.510Z,98616.69
2022-10-23T10:45:33.855Z,98617.84
2022-10-23T10:48:37.176Z,98621.38
2022-10-23T10:51:11.928Z,98618.72
2022-10-23T10:53:49.292Z,98616.00
2022-10-23T10:56:18.894Z,98622.78
2022-10-23T10:58:56.576Z,98622.34
2022-10-23T11:01:28.715Z,98610.63
2022-10-23T11:04:06.746Z,98597.88
2022-10-23T11:06:36.541Z,98607.63
2022-10-23T11:09:20.751Z,98605.63
2022-10-23T11:11:48.719Z,98604.56
2022-10-23T11:14:24.344Z,98600.75
2022-10-23T11:16:53.629Z,98582.06
2022-10-23T11:19:25.537Z,98592.44
2022-10-23T11:22:05.233Z,98584.91
2022-10-23T11:24:59.602Z,98584.91
2022-10-23T11:27:35.213Z,98585.78
2022-10-23T11:30:30.991Z,98574.19
2022-10-23T11:33:34.651Z,98570.16
2022-10-23T11:36:17.135Z,98564.81
2022-10-23T11:38:46.459Z,98562.34
2022-10-23T11:41:27.173Z,98547.25
2022-10-23T11:44:03.993Z,98551.03
2022-10-23T11:46:40.847Z,98545.00
2022-10-23T11:49:21.256Z,98535.44
2022-10-23T11:51:47.983Z,98532.81
2022-10-23T11:54:17.571Z,98534.69
2022-10-23T11:57:11.516Z,98534.94
2022-10-23T11:59:52.511Z,98529.84
2022-10-23T12:02:32.961Z,98524.59
2022-10-23T12:05:09.588Z,98521.09
2022-10-23T12:07:38.349Z,98526.56
2022-10-23T12:10:17.449Z,98523.94
2022-10-23T12:12:55.512Z,98518.78
2022-10-23T12:15:23.550Z,98520.59
2022-10-23T12:17:51.198Z,98508.88
2022-10-23T12:20:44.810Z,98510.38
2022-10-23T12:23:26.299Z,98498.69
2022-10-23T12:26:14.453Z,98496.94
2022-10-23T12:29:19.108Z,98488.72
2022-10-23T12:32:12.467Z,98476.38
2022-10-23T12:35:23.922Z,98470.16
2022-10-23T12:37:59.151Z,98467.75
2022-10-23T12:40:30.209Z,98458.03
2022-10-23T12:42:59.521Z,98460.47
2022-10-23T12:45:31.964Z,98455.03
2022-10-23T12:47:58.474Z,98456.19
2022-10-23T12:50:27.660Z,98448.13
2022-10-23T12:52:57.133Z,98437.72
2022-10-23T12:55:25.610Z,98436.25
2022-10-23T12:57:54.551Z,98437.38
2022-10-23T13:00:23.731Z,98434.69
2022-10-23T13:03:04.114Z,98424.06
2022-10-23T13:05:32.179Z,98427.72
2022-10-23T13:08:00.816Z,98418.69
2022-10-23T13:10:27.778Z,98410.81
2022-10-23T13:13:02.609Z,98408.28
2022-10-23T13:15:40.682Z,98408.53
2022-10-23T13:18:08.718Z,98415.56
2022-10-23T13:20:42.308Z,98408.53
2022-10-23T13:23:19.134Z,98406.00
2022-10-23T13:25:56.774Z,98406.06
2022-10-23T13:28:29.284Z,98392.63
2022-10-23T13:30:58.747Z,98402.31
2022-10-23T13:33:31.418Z,98389.41
2022-10-23T13:36:16.587Z,98394.22
2022-10-23T13:38:47.237Z,98391.59
2022-10-23T13:41:17.677Z,98390.00
2022-10-23T13:43:46.010Z,98380.22
2022-10-23T13:46:17.438Z,98377.63
2022-10-23T13:48:44.048Z,98374.66
2022-10-23T13:51:14.919Z,98379.50
2022-10-23T13:53:41.856Z,98380.47
2022-10-23T13:56:11.963Z,98383.63
2022-10-23T13:58:38.688Z,98380.09
2022-10-23T14:01:06.474Z,98375.06
2022-10-23T14:03:33.047Z,98370.53
2022-10-23T14:06:00.468Z,98367.44
2022-10-23T14:08:26.922Z,98361.88
2022-10-23T14:10:53.481Z,98364.16
2022-10-23T14:13:19.957Z,98363.34
2022-10-23T14:15:53.861Z,98345.75
2022-10-23T14:18:20.748Z,98345.88
2022-10-23T14:20:47.548Z,98345.88
2022-10-23T14:23:14.007Z,98338.84
2022-10-23T14:25:40.537Z,98343.78
2022-10-23T14:28:07.053Z,98356.47
2022-10-23T14:30:36.540Z,98345.88
2022-10-23T14:33:03.380Z,98328.16
2022-10-23T14:35:29.926Z,98317.59
2022-10-23T14:37:57.870Z,98314.13
2022-10-23T14:40:24.427Z,98301.75
2022-10-23T14:42:50.982Z,98302.97
2022-10-23T14:45:17.466Z,98316.72
2022-10-23T14:47:44.297Z,98318.34
2022-10-23T14:50:12.022Z,98301.53
2022-10-23T14:52:38.509Z,98297.28
2022-10-23T14:55:05.291Z,98292.94
2022-10-23T14:57:31.782Z,98272.66
2022-10-23T14:59:58.242Z,98278.66
2022-10-23T15:02:24.758Z,98273.59
2022-10-23T15:04:51.225Z,98273.16
2022-10-23T15:07:17.819Z,98285.06
2022-10-23T15:09:44.296Z,98279.19
2022-10-23T15:12:10.796Z,98276.72
2022-10-23T15:14:37.367Z,98270.63
2022-10-23T15:17:04.345Z,98258.34
2022-10-23T15:19:31.172Z,98254.00
2022-10-23T15:21:57.679Z,98250.19
2022-10-23T15:24:24.479Z,98241.03
2022-10-23T15:26:51.889Z,98250.31
2022-10-23T15:29:19.389Z,98239.81
2022-10-23T15:31:54.530Z,98238.69
2022-10-23T15:34:24.605Z,98241.31
2022-10-23T15:36:52.638Z,98242.97
2022-10-23T15:39:22.161Z,98236.91
2022-10-23T15:41:52.985Z,98230.28
2022-10-23T15:44:21.583Z,98233.16
2022-10-23T15:46:48.656Z,98222.75
2022-10-23T15:49:15.465Z,98214.22
2022-10-23T15:51:42.401Z,98216.22
2022-10-23T15:54:13.136Z,98213.53
2022-10-23T15:56:39.815Z,98206.69
2022-10-23T15:59:06.271Z,98206.59
2022-10-23T16:01:32.902Z,98214.34
2022-10-23T16:03:59.433Z,98211.31
2022-10-23T16:06:26.301Z,98208.19
2022-10-23T16:11:27.192Z,98202.56
2022-10-23T16:13:58.218Z,98190.09
2022-10-23T16:16:25.010Z,98185.59
2022-10-23T16:18:52.796Z,98197.22
2022-10-23T16:21:25.804Z,98180.25
2022-10-23T16:23:53.996Z,98173.69
2022-10-23T16:26:21.364Z,98167.59
2022-10-23T16:28:48.231Z,98159.97
2022-10-23T16:31:20.010Z,98168.91
2022-10-23T16:33:48.015Z,98156.50
2022-10-23T16:36:14.554Z,98158.41
2022-10-23T16:38:41.139Z,98141.53
2022-10-23T16:41:07.686Z,98146.94
2022-10-23T16:43:34.325Z,98137.06
2022-10-23T16:46:06.390Z,98109.50
2022-10-23T16:48:34.690Z,98101.78
2022-10-23T16:51:05.528Z,98106.22
2022-10-23T16:53:33.202Z,98092.63
2022-10-23T16:56:00.114Z,98102.19
2022-10-23T16:58:27.405Z,98096.22
2022-10-23T17:01:02.402Z,98101.66
2022-10-23T17:03:29.855Z,98102.47
2022-10-23T17:06:01.733Z,98097.97
2022-10-23T17:08:28.828Z,98100.84
2022-10-23T17:11:08.514Z,98098.59
2022-10-23T17:13:37.022Z,98089.84
2022-10-23T17:16:10.031Z,98113.00
2022-10-23T17:18:41.295Z,98112.06
2022-10-23T17:21:11.953Z,98114.94
2022-10-23T17:23:38.573Z,98120.28
2022-10-23T17:26:09.034Z,98126.50
2022-10-23T17:28:39.852Z,98108.28
2022-10-23T17:31:33.394Z,98112.34
2022-10-23T17:34:06.314Z,98104.19
2022-10-23T17:36:37.055Z,98098.28
2022-10-23T17:39:07.736Z,98105.09
2022-10-23T17:41:35.206Z,98096.41
2022-10-23T17:44:01.723Z,98099.44
2022-10-23T17:46:31.837Z,98102.94
2022-10-23T17:51:34.806Z,98107.97
2022-10-23T17:54:04.248Z,98110.56
2022-10-23T17:56:32.740Z,98104.47
2022-10-23T17:59:23.609Z,98105.81
2022-10-23T18:01:50.781Z,98099.34
2022-10-23T18:04:20.000Z,98107.69
2022-10-23T18:06:52.569Z,98126.00
2022-10-23T18:09:23.080Z,98129.53
2022-10-23T18:11:50.372Z,98139.97
2022-10-23T18:14:20.377Z,98138.22
2022-10-23T18:16:47.086Z,98132.63
2022-10-23T18:19:15.629Z,98135.81
2022-10-23T18:21:42.362Z,98132.44
2022-10-23T18:24:09.085Z,98129.34
2022-10-23T18:26:39.068Z,98131.38
2022-10-23T18:29:07.839Z,98139.94
2022-10-23T18:31:37.087Z,98129.44
2022-10-23T18:34:07.663Z,98120.13
2022-10-23T18:36:37.334Z,98118.00
2022-10-23T18:39:06.813Z,98123.97
2022-10-23T18:41:39.042Z,98123.56
2022-10-23T18:44:05.982Z,98120.44
2022-10-23T18:46:33.021Z,98125.72
2022-10-23T18:48:59.779Z,98129.13
2022-10-23T18:51:30.385Z,98121.44
2022-10-23T18:53:57.600Z,98121.31
2022-10-23T18:56:26.686Z,98116.41
2022-10-23T18:58:58.761Z,98122.91
2022-10-23T19:01:27.216Z,98130.00
2022-10-23T19:06:27.520Z,98137.63
2022-10-23T19:08:54.282Z,98147.47
2022-10-23T19:11:24.119Z,98147.31
2022-10-23T19:13:50.994Z,98154.31
2022-10-23T19:16:27.790Z,98158.50
2022-10-23T19:18:58.895Z,98167.22
2022-10-23T19:21:31.746Z,98173.16
2022-10-23T19:24:05.887Z,98162.31
2022-10-23T19:26:34.641Z,98177.06
2022-10-23T19:29:01.787Z,98181.00
2022-10-23T19:31:28.443Z,98181.28
2022-10-23T19:33:55.010Z,98186.13
2022-10-23T19:36:23.447Z,98191.81
2022-10-23T19:38:50.499Z,98195.66
2022-10-23T19:41:18.367Z,98187.84
2022-10-23T19:43:45.218Z,98190.75
2022-10-23T19:46:12.323Z,98187.41
2022-10-23T19:48:43.584Z,98193.69
2022-10-23T19:51:10.704Z,98191.00
2022-10-23T19:53:37.899Z,98187.53
2022-10-23T19:56:06.653Z,98190.31
2022-10-23T19:58:33.692Z,98186.91
2022-10-23T20:01:11.690Z,98186.97
2022-10-23T20:03:39.629Z,98199.38
2022-10-23T20:06:09.336Z,98204.84
2022-10-23T20:08:35.948Z,98220.09
2022-10-23T20:11:02.768Z,98224.56
2022-10-23T20:13:29.323Z,98233.56
2022-10-23T20:15:55.913Z,98237.28
2022-10-23T20:18:25.658Z,98232.16
2022-10-23T20:20:52.936Z,98227.75
2022-10-23T20:23:20.146Z,98225.16
2022-10-23T20:25:46.693Z,98229.56
2022-10-23T20:28:15.115Z,98221.66
2022-10-23T20:30:42.522Z,98230.66
2022-10-23T20:33:09.396Z,98230.66
2022-10-23T20:35:42.763Z,98227.06
2022-10-23T20:38:10.049Z,98226.13
2022-10-23T20:40:36.613Z,98225.38
2022-10-23T20:43:03.192Z,98224.56
2022-10-23T20:45:29.676Z,98226.44
2022-10-23T20:47:59.366Z,98197.97
2022-10-23T20:50:25.869Z,98162.47
2022-10-23T20:52:52.346Z,98170.34
2022-10-23T20:55:19.617Z,98183.00
2022-10-23T20:57:46.660Z,98164.50
2022-10-23T21:00:13.749Z,98153.00
2022-10-23T21:02:40.362Z,98137.84
2022-10-23T21:05:07.378Z,98124.59
2022-10-23T21:07:34.036Z,98110.47
2022-10-23T21:10:01.154Z,98121.22
2022-10-23T21:12:30.509Z,98112.50
2022-10-23T21:14:57.105Z,98123.25
2022-10-23T21:17:23.699Z,98111.25
2022-10-23T21:19:50.224Z,98123.09
2022-10-23T21:22:16.866Z,98120.56
2022-10-23T21:24:43.568Z,98111.03
2022-10-23T21:27:10.091Z,98106.53
2022-10-23T21:29:36.543Z,98120.66
2022-10-23T21:32:06.604Z,98124.53
2022-10-23T21:34:33.091Z,98131.28
2022-10-23T21:37:12.468Z,98139.69
2022-10-23T21:39:39.810Z,98137.84
2022-10-23T21:42:09.368Z,98140.25
2022-10-23T21:44:35.909Z,98142.91
2022-10-23T21:47:02.472Z,98148.50
2022-10-23T21:49:32.508Z,98134.47
2022-10-23T21:51:59.031Z,98139.78
2022-10-23T21:54:25.572Z,98143.38
2022-10-23T21:56:53.868Z,98143.28
2022-10-23T21:59:24.094Z,98145.38
2022-10-23T22:01:51.699Z,98134.72
2022-10-23T22:04:19.645Z,98134.72
2022-10-23T22:06:48.784Z,98128.16
2022-10-23T22:09:23.662Z,98129.03
2022-10-23T22:11:54.505Z,98137.84
2022-10-23T22:14:22.168Z,98123.53
2022-10-23T22:16:49.319Z,98119.53
2022-10-23T22:19:17.081Z,98114.53
2022-10-23T22:21:44.039Z,98111.75
2022-10-23T22:24:10.833Z,98110.06
2022-10-23T22:26:48.598Z,98092.22
2022-10-23T22:29:19.729Z,98091.75
2022-10-23T22:31:50.091Z,98087.88
2022-10-23T22:37:15.149Z,98089.28
2022-10-23T22:39:42.175Z,98094.56
2022-10-23T22:42:12.167Z,98084.00
2022-10-23T22:44:38.636Z,98096.44
2022-10-23T22:47:05.137Z,98091.19
2022-10-23T22:49:34.277Z,98100.16
2022-10-23T22:52:00.771Z,98115.28
2022-10-23T22:54:27.320Z,98119.69
2022-10-23T22:56:57.010Z,98124.16
2022-10-23T22:59:23.539Z,98128.56
2022-10-23T23:01:51.111Z,98128.50
2022-10-23T23:07:09.847Z,98138.00
2022-10-23T23:09:41.539Z,98147.69
2022-10-23T23:12:12.738Z,98146.75
2022-10-23T23:14:40.193Z,98144.19
2022-10-23T23:17:07.904Z,98135.38
2022-10-23T23:19:35.723Z,98143.38
2022-10-23T23:22:02.403Z,98135.50
2022-10-23T23:24:32.257Z,98127.28
2022-10-23T23:26:58.829Z,98136.09
2022-10-23T23:29:29.553Z,98136.94
2022-10-23T23:31:56.162Z,98141.28
2022-10-23T23:34:22.886Z,98158.22
2022-10-23T23:36:49.384Z,98165.28
2022-10-23T23:39:16.373Z,98165.91
2022-10-23T23:41:42.873Z,98151.44
2022-10-23T23:44:09.982Z,98165.47
2022-10-23T23:46:36.471Z,98151.78
2022-10-23T23:49:03.155Z,98160.56
2022-10-23T23:51:31.340Z,98158.84
2022-10-23T23:53:57.828Z,98163.25
2022-10-23T23:56:28.173Z,98159.34
2022-10-23T23:58:58.658Z,98170.03
